LFBG/CNG METAR and TAF weather

Enter ICAO airport designator
Station Type Date Time Source
LFBG METAR 2021/06/24 06:00 UTC NOAA

LFBG 240600Z AUTO 35009KT CAVOK 16/13 Q1022 NOSIG


Station Type Date Time Source
LFBG Decoded METAR 2021/06/24 06:00 UTC NOAA

Cognac, France (LFBG) 45-40N 000-19W 31M
Jun 24, 2021 - 02:00 AM EDT / 2021.06.24 0600 UTC
Wind: from the N (350 degrees) at 10 MPH (9 KT):0
Visibility: greater than 7 mile(s):0
Temperature: 60 F (16 C)
Dew Point: 55 F (13 C)
Relative Humidity: 82%
Pressure (altimeter): 30.18 in. Hg (1022 hPa)
ob: LFBG 240600Z AUTO 35009KT CAVOK 16/13 Q1022 NOSIG
cycle: 6

Station Type Date Time Source
LFBG TAF 2021/06/24 05:09 UTC NOAA

TAF
AMD LFBG 240500Z 2405/2503 34008KT 9999 BKN040

Example: see airport list